Millsboro, DE

22:56 EDT le 20 avril 2015 (GMT -0400)
Whartons Bluff | | Change Station
CLOSE
Current Station
Stations météorologiques personnelles
Location: Millsboro, DE
Altitude: 26 ft
Stations météo à proximité

Alt. 26 ft 38.58 °N, 75.27 °W | Updated 6 minutes ago

Ciel dégagé
Ciel dégagé
66.6 ° F
Paraît 66.6 ° F
N
2.2
Vent Variable Vent de SSE

Aujourd'hui
Haut(e) -- | Bas -- ° F
--% Risque de précip.
Hier
Haut(e) -- | Bas -- ° F
Precip. -- pouce
6:18 AM 7:42 PM
Lune montante, 7% visible
Pression 29.60 pouce
Visibilité 10.0 Miles terrestres
Nuages Ciel dégagé
Point de rosée 60 ° F
Humidité 79%
Précipitations 1.88 pouce
Profondeur de la couche neigeuse Non disponible.
UV 0 sur 12
Pollen 1.90 sur 12
Qualité de l'air Non disponible.
Flu Activity Local Activity
METAR KGED 210154Z AUTO 18012G19KT 10SM CLR 20/16 A2960 RMK AO2 SLP024 T02000156

More Conditions Fewer Conditions

Pression 29.60 pouce
Visibilité 10.0 Miles terrestres
Nuages Ciel dégagé
Point de rosée 60 ° F
Humidité 79%
Précipitations 1.88 pouce
Profondeur de la couche neigeuse Non disponible.
UV 0 sur 12
Pollen 1.90 sur 12
Qualité de l'air Non disponible.
Flu Activity Local Activity
METAR KGED 210154Z AUTO 18012G19KT 10SM CLR 20/16 A2960 RMK AO2 SLP024 T02000156

More Conditions Fewer Conditions

10-Day Weather Forecast

Almanac

Astronomie

Apr. 20, 2015 Lever Coucher
Temps réel
Crépuscule civil
Crépuscule nautique
Crépuscule astronomique
Lune
Durée de lumière visible
Longueur du jour
Tomorrow will be .
, % of the Moon is Illuminated

Extrêmes aujourd'hui

State Highs State Lows

Community

WunderPhotos

Upload Photos

1,815,283 Photos téléchargées !

WunderBlogs® & News

Nearby

Qualité de l'air

  Qualité de l'air Indice de la qualité de l'air Polluant
Not available.

Épaisseur de neige

Station Depth Altitude

Activité sismique

Ville Distance Mag. Time & Date
Minimum magnitude displayed is 2.5.

Températures des eaux côtières

Lieu Température

Stations

Stations météo à proximité

Emplacement de la station Température Refroidissement éolien Point de rosée Humidité Vent Precip. Alt. Mise à jour Type